sensor_id;sensor_type;location;lat;lon;timestamp;P1;durP1;ratioP1;P2;durP2;ratioP2
21798;SDS011;24973;47.178;15.316;2023-11-21T00:00:07;8.60;;;7.77;;
21798;SDS011;24973;47.178;15.316;2023-11-21T00:02:59;21.00;;;10.90;;
21798;SDS011;24973;47.178;15.316;2023-11-21T00:05:50;14.50;;;10.43;;
21798;SDS011;24973;47.178;15.316;2023-11-21T00:08:40;11.93;;;10.77;;
21798;SDS011;24973;47.178;15.316;2023-11-21T00:11:29;10.90;;;9.50;;
21798;SDS011;24973;47.178;15.316;2023-11-21T00:14:18;13.73;;;11.23;;
21798;SDS011;24973;47.178;15.316;2023-11-21T00:17:07;13.97;;;12.80;;
21798;SDS011;24973;47.178;15.316;2023-11-21T00:19:56;31.60;;;19.13;;
21798;SDS011;24973;47.178;15.316;2023-11-21T00:22:47;13.40;;;10.90;;
21798;SDS011;24973;47.178;15.316;2023-11-21T00:25:36;14.90;;;12.37;;
21798;SDS011;24973;47.178;15.316;2023-11-21T00:28:25;13.93;;;11.13;;
21798;SDS011;24973;47.178;15.316;2023-11-21T00:31:15;13.83;;;11.53;;
21798;SDS011;24973;47.178;15.316;2023-11-21T00:34:04;21.70;;;16.23;;
21798;SDS011;24973;47.178;15.316;2023-11-21T00:36:53;26.10;;;16.40;;
21798;SDS011;24973;47.178;15.316;2023-11-21T00:39:43;17.83;;;16.13;;
21798;SDS011;24973;47.178;15.316;2023-11-21T00:42:32;19.03;;;17.20;;
21798;SDS011;24973;47.178;15.316;2023-11-21T00:45:21;17.00;;;14.97;;
21798;SDS011;24973;47.178;15.316;2023-11-21T00:48:10;19.20;;;17.10;;
21798;SDS011;24973;47.178;15.316;2023-11-21T00:51:00;29.07;;;21.50;;
21798;SDS011;24973;47.178;15.316;2023-11-21T00:53:49;20.80;;;17.83;;
21798;SDS011;24973;47.178;15.316;2023-11-21T00:56:40;20.47;;;18.43;;
21798;SDS011;24973;47.178;15.316;2023-11-21T00:59:29;18.77;;;17.03;;
21798;SDS011;24973;47.178;15.316;2023-11-21T01:02:18;19.10;;;17.43;;
21798;SDS011;24973;47.178;15.316;2023-11-21T01:05:07;19.50;;;17.63;;
21798;SDS011;24973;47.178;15.316;2023-11-21T01:07:56;25.17;;;20.33;;
21798;SDS011;24973;47.178;15.316;2023-11-21T01:10:45;21.60;;;19.63;;
21798;SDS011;24973;47.178;15.316;2023-11-21T01:13:35;17.90;;;16.23;;
21798;SDS011;24973;47.178;15.316;2023-11-21T01:16:24;20.60;;;19.03;;
21798;SDS011;24973;47.178;15.316;2023-11-21T01:19:14;23.33;;;21.37;;
21798;SDS011;24973;47.178;15.316;2023-11-21T01:22:03;26.67;;;23.23;;
21798;SDS011;24973;47.178;15.316;2023-11-21T01:24:52;29.33;;;24.90;;
21798;SDS011;24973;47.178;15.316;2023-11-21T01:27:42;17.43;;;15.80;;
21798;SDS011;24973;47.178;15.316;2023-11-21T01:30:33;21.37;;;19.47;;
21798;SDS011;24973;47.178;15.316;2023-11-21T01:33:22;23.00;;;20.93;;
21798;SDS011;24973;47.178;15.316;2023-11-21T01:36:11;28.43;;;25.50;;
21798;SDS011;24973;47.178;15.316;2023-11-21T01:39:00;33.37;;;26.93;;
21798;SDS011;24973;47.178;15.316;2023-11-21T01:41:54;27.77;;;24.90;;
21798;SDS011;24973;47.178;15.316;2023-11-21T01:44:45;26.03;;;24.00;;
21798;SDS011;24973;47.178;15.316;2023-11-21T01:47:35;26.67;;;24.57;;
21798;SDS011;24973;47.178;15.316;2023-11-21T01:50:25;27.70;;;25.73;;
21798;SDS011;24973;47.178;15.316;2023-11-21T01:53:14;26.23;;;24.03;;
21798;SDS011;24973;47.178;15.316;2023-11-21T01:56:03;36.83;;;31.60;;
21798;SDS011;24973;47.178;15.316;2023-11-21T01:58:54;30.03;;;27.03;;
21798;SDS011;24973;47.178;15.316;2023-11-21T02:01:43;28.47;;;26.30;;
21798;SDS011;24973;47.178;15.316;2023-11-21T02:04:35;31.10;;;28.50;;
21798;SDS011;24973;47.178;15.316;2023-11-21T02:07:24;26.53;;;24.60;;
21798;SDS011;24973;47.178;15.316;2023-11-21T02:10:13;24.43;;;22.60;;
21798;SDS011;24973;47.178;15.316;2023-11-21T02:13:03;36.07;;;32.73;;
21798;SDS011;24973;47.178;15.316;2023-11-21T02:15:52;38.30;;;34.63;;
21798;SDS011;24973;47.178;15.316;2023-11-21T02:18:42;27.50;;;25.17;;
21798;SDS011;24973;47.178;15.316;2023-11-21T02:21:35;27.77;;;25.40;;
21798;SDS011;24973;47.178;15.316;2023-11-21T02:24:28;35.90;;;32.87;;
21798;SDS011;24973;47.178;15.316;2023-11-21T02:27:17;38.57;;;35.23;;
21798;SDS011;24973;47.178;15.316;2023-11-21T02:30:09;40.93;;;37.47;;
21798;SDS011;24973;47.178;15.316;2023-11-21T02:33:00;41.23;;;37.17;;
21798;SDS011;24973;47.178;15.316;2023-11-21T02:35:49;45.57;;;41.40;;
21798;SDS011;24973;47.178;15.316;2023-11-21T02:38:40;38.50;;;35.47;;
21798;SDS011;24973;47.178;15.316;2023-11-21T02:41:30;43.60;;;40.00;;
21798;SDS011;24973;47.178;15.316;2023-11-21T02:44:19;43.07;;;39.27;;
21798;SDS011;24973;47.178;15.316;2023-11-21T02:47:08;48.30;;;43.97;;
21798;SDS011;24973;47.178;15.316;2023-11-21T02:49:57;53.73;;;47.60;;
21798;SDS011;24973;47.178;15.316;2023-11-21T02:52:46;48.03;;;43.73;;
21798;SDS011;24973;47.178;15.316;2023-11-21T02:55:35;51.80;;;46.90;;
21798;SDS011;24973;47.178;15.316;2023-11-21T02:58:26;55.50;;;50.30;;
21798;SDS011;24973;47.178;15.316;2023-11-21T03:01:15;54.67;;;49.47;;
21798;SDS011;24973;47.178;15.316;2023-11-21T03:04:05;52.60;;;47.50;;
21798;SDS011;24973;47.178;15.316;2023-11-21T03:06:54;61.30;;;55.17;;
21798;SDS011;24973;47.178;15.316;2023-11-21T03:09:43;56.97;;;51.37;;
21798;SDS011;24973;47.178;15.316;2023-11-21T03:12:32;57.77;;;51.93;;
21798;SDS011;24973;47.178;15.316;2023-11-21T03:15:22;63.80;;;57.17;;
21798;SDS011;24973;47.178;15.316;2023-11-21T03:18:11;65.03;;;57.33;;
21798;SDS011;24973;47.178;15.316;2023-11-21T03:21:00;62.60;;;54.53;;
21798;SDS011;24973;47.178;15.316;2023-11-21T03:23:49;63.93;;;57.10;;
21798;SDS011;24973;47.178;15.316;2023-11-21T03:26:38;63.60;;;56.70;;
21798;SDS011;24973;47.178;15.316;2023-11-21T03:29:27;61.87;;;55.23;;
21798;SDS011;24973;47.178;15.316;2023-11-21T03:32:18;65.03;;;57.00;;
21798;SDS011;24973;47.178;15.316;2023-11-21T03:35:07;69.97;;;58.37;;
21798;SDS011;24973;47.178;15.316;2023-11-21T03:37:57;72.00;;;59.03;;
21798;SDS011;24973;47.178;15.316;2023-11-21T03:40:46;74.17;;;60.73;;
21798;SDS011;24973;47.178;15.316;2023-11-21T03:43:35;78.87;;;63.13;;
21798;SDS011;24973;47.178;15.316;2023-11-21T03:46:24;79.13;;;62.60;;
21798;SDS011;24973;47.178;15.316;2023-11-21T03:49:14;81.37;;;62.33;;
21798;SDS011;24973;47.178;15.316;2023-11-21T03:52:03;90.60;;;66.77;;
21798;SDS011;24973;47.178;15.316;2023-11-21T03:54:54;114.10;;;77.40;;
21798;SDS011;24973;47.178;15.316;2023-11-21T03:57:43;106.40;;;70.33;;
21798;SDS011;24973;47.178;15.316;2023-11-21T04:00:32;110.57;;;70.27;;
21798;SDS011;24973;47.178;15.316;2023-11-21T04:03:21;111.40;;;72.40;;
21798;SDS011;24973;47.178;15.316;2023-11-21T04:06:11;118.80;;;74.40;;
21798;SDS011;24973;47.178;15.316;2023-11-21T04:09:00;115.17;;;73.13;;
21798;SDS011;24973;47.178;15.316;2023-11-21T04:11:51;122.87;;;74.70;;
21798;SDS011;24973;47.178;15.316;2023-11-21T04:14:40;132.97;;;78.50;;
21798;SDS011;24973;47.178;15.316;2023-11-21T04:17:29;140.37;;;76.27;;
21798;SDS011;24973;47.178;15.316;2023-11-21T04:20:18;162.90;;;82.30;;
21798;SDS011;24973;47.178;15.316;2023-11-21T04:23:08;184.03;;;89.40;;
21798;SDS011;24973;47.178;15.316;2023-11-21T04:26:00;210.73;;;95.50;;
21798;SDS011;24973;47.178;15.316;2023-11-21T04:28:49;322.60;;;98.47;;
21798;SDS011;24973;47.178;15.316;2023-11-21T04:31:38;193.97;;;86.57;;
21798;SDS011;24973;47.178;15.316;2023-11-21T04:34:28;303.07;;;88.87;;
21798;SDS011;24973;47.178;15.316;2023-11-21T04:37:17;87.57;;;65.00;;
21798;SDS011;24973;47.178;15.316;2023-11-21T04:40:08;110.43;;;73.07;;
21798;SDS011;24973;47.178;15.316;2023-11-21T04:42:58;122.50;;;77.90;;
21798;SDS011;24973;47.178;15.316;2023-11-21T04:45:48;139.80;;;76.53;;
21798;SDS011;24973;47.178;15.316;2023-11-21T04:48:37;109.10;;;71.63;;
21798;SDS011;24973;47.178;15.316;2023-11-21T04:51:27;110.53;;;71.90;;
21798;SDS011;24973;47.178;15.316;2023-11-21T04:54:16;107.67;;;70.33;;
21798;SDS011;24973;47.178;15.316;2023-11-21T04:57:06;108.03;;;69.90;;
21798;SDS011;24973;47.178;15.316;2023-11-21T04:59:56;134.90;;;81.63;;
21798;SDS011;24973;47.178;15.316;2023-11-21T05:02:45;120.90;;;75.30;;
21798;SDS011;24973;47.178;15.316;2023-11-21T05:05:34;120.67;;;73.43;;
21798;SDS011;24973;47.178;15.316;2023-11-21T05:08:24;125.90;;;75.70;;
21798;SDS011;24973;47.178;15.316;2023-11-21T05:11:22;137.27;;;76.00;;
21798;SDS011;24973;47.178;15.316;2023-11-21T05:14:13;153.30;;;81.13;;
21798;SDS011;24973;47.178;15.316;2023-11-21T05:17:02;172.27;;;87.50;;
21798;SDS011;24973;47.178;15.316;2023-11-21T05:19:52;188.27;;;90.40;;
21798;SDS011;24973;47.178;15.316;2023-11-21T05:22:41;191.83;;;87.07;;
21798;SDS011;24973;47.178;15.316;2023-11-21T05:25:30;191.23;;;86.63;;
21798;SDS011;24973;47.178;15.316;2023-11-21T05:28:19;182.27;;;86.20;;
21798;SDS011;24973;47.178;15.316;2023-11-21T05:31:09;283.20;;;98.50;;
21798;SDS011;24973;47.178;15.316;2023-11-21T05:33:59;270.53;;;98.03;;
21798;SDS011;24973;47.178;15.316;2023-11-21T05:36:48;132.27;;;78.33;;
21798;SDS011;24973;47.178;15.316;2023-11-21T05:39:37;191.73;;;86.87;;
21798;SDS011;24973;47.178;15.316;2023-11-21T05:42:26;148.87;;;80.57;;
21798;SDS011;24973;47.178;15.316;2023-11-21T05:45:16;94.17;;;68.17;;
21798;SDS011;24973;47.178;15.316;2023-11-21T05:48:07;69.43;;;57.23;;
21798;SDS011;24973;47.178;15.316;2023-11-21T05:50:56;50.40;;;45.33;;
21798;SDS011;24973;47.178;15.316;2023-11-21T05:53:45;50.50;;;45.30;;
21798;SDS011;24973;47.178;15.316;2023-11-21T05:56:34;45.80;;;41.83;;
21798;SDS011;24973;47.178;15.316;2023-11-21T05:59:23;39.87;;;36.77;;
21798;SDS011;24973;47.178;15.316;2023-11-21T06:02:12;34.23;;;31.53;;
21798;SDS011;24973;47.178;15.316;2023-11-21T06:05:03;39.40;;;35.23;;
21798;SDS011;24973;47.178;15.316;2023-11-21T06:07:53;36.83;;;33.60;;
21798;SDS011;24973;47.178;15.316;2023-11-21T06:10:43;35.83;;;32.67;;
21798;SDS011;24973;47.178;15.316;2023-11-21T06:13:31;40.93;;;37.30;;
21798;SDS011;24973;47.178;15.316;2023-11-21T06:16:21;47.33;;;42.87;;
21798;SDS011;24973;47.178;15.316;2023-11-21T06:19:10;54.20;;;47.97;;
21798;SDS011;24973;47.178;15.316;2023-11-21T06:22:01;61.60;;;53.17;;
21798;SDS011;24973;47.178;15.316;2023-11-21T06:24:50;66.27;;;54.60;;
21798;SDS011;24973;47.178;15.316;2023-11-21T06:27:39;56.87;;;50.97;;
21798;SDS011;24973;47.178;15.316;2023-11-21T06:30:29;56.77;;;50.80;;
21798;SDS011;24973;47.178;15.316;2023-11-21T06:33:18;60.73;;;54.30;;
21798;SDS011;24973;47.178;15.316;2023-11-21T06:36:08;72.67;;;57.00;;
21798;SDS011;24973;47.178;15.316;2023-11-21T06:39:00;74.73;;;59.83;;
21798;SDS011;24973;47.178;15.316;2023-11-21T06:41:53;56.80;;;51.00;;
21798;SDS011;24973;47.178;15.316;2023-11-21T06:44:42;59.77;;;53.33;;
21798;SDS011;24973;47.178;15.316;2023-11-21T06:47:31;58.93;;;52.57;;
21798;SDS011;24973;47.178;15.316;2023-11-21T06:50:21;63.73;;;55.50;;
21798;SDS011;24973;47.178;15.316;2023-11-21T06:53:10;58.93;;;52.63;;
21798;SDS011;24973;47.178;15.316;2023-11-21T06:56:01;77.37;;;60.83;;
21798;SDS011;24973;47.178;15.316;2023-11-21T06:58:50;63.60;;;54.23;;
21798;SDS011;24973;47.178;15.316;2023-11-21T07:01:40;65.27;;;57.77;;
21798;SDS011;24973;47.178;15.316;2023-11-21T07:04:29;70.30;;;57.83;;
21798;SDS011;24973;47.178;15.316;2023-11-21T07:07:18;72.03;;;59.43;;
21798;SDS011;24973;47.178;15.316;2023-11-21T07:10:07;71.20;;;58.50;;
21798;SDS011;24973;47.178;15.316;2023-11-21T07:12:58;74.40;;;59.73;;
21798;SDS011;24973;47.178;15.316;2023-11-21T07:15:48;79.97;;;63.03;;
21798;SDS011;24973;47.178;15.316;2023-11-21T07:18:37;82.93;;;63.60;;
21798;SDS011;24973;47.178;15.316;2023-11-21T07:21:27;72.60;;;58.80;;
21798;SDS011;24973;47.178;15.316;2023-11-21T07:24:16;71.03;;;59.00;;
21798;SDS011;24973;47.178;15.316;2023-11-21T07:27:05;88.43;;;66.00;;
21798;SDS011;24973;47.178;15.316;2023-11-21T07:29:55;93.77;;;67.80;;
21798;SDS011;24973;47.178;15.316;2023-11-21T07:32:44;80.73;;;62.53;;
21798;SDS011;24973;47.178;15.316;2023-11-21T07:35:34;95.80;;;71.00;;
21798;SDS011;24973;47.178;15.316;2023-11-21T07:38:23;95.63;;;70.07;;
21798;SDS011;24973;47.178;15.316;2023-11-21T07:41:12;92.17;;;67.60;;
21798;SDS011;24973;47.178;15.316;2023-11-21T07:44:08;102.77;;;70.50;;
21798;SDS011;24973;47.178;15.316;2023-11-21T07:46:58;90.60;;;67.77;;
21798;SDS011;24973;47.178;15.316;2023-11-21T07:49:47;96.80;;;70.10;;
21798;SDS011;24973;47.178;15.316;2023-11-21T07:52:36;88.63;;;66.37;;
21798;SDS011;24973;47.178;15.316;2023-11-21T07:55:26;71.80;;;59.03;;
21798;SDS011;24973;47.178;15.316;2023-11-21T07:58:18;71.40;;;58.57;;
21798;SDS011;24973;47.178;15.316;2023-11-21T08:01:08;96.33;;;70.77;;
21798;SDS011;24973;47.178;15.316;2023-11-21T08:03:58;96.47;;;70.03;;
21798;SDS011;24973;47.178;15.316;2023-11-21T08:06:50;98.10;;;68.77;;
21798;SDS011;24973;47.178;15.316;2023-11-21T08:09:39;101.70;;;70.23;;
21798;SDS011;24973;47.178;15.316;2023-11-21T08:12:28;97.37;;;68.53;;
21798;SDS011;24973;47.178;15.316;2023-11-21T08:15:17;116.83;;;73.47;;
21798;SDS011;24973;47.178;15.316;2023-11-21T08:18:06;136.80;;;81.67;;
21798;SDS011;24973;47.178;15.316;2023-11-21T08:20:57;119.77;;;76.37;;
21798;SDS011;24973;47.178;15.316;2023-11-21T08:23:46;127.03;;;78.43;;
21798;SDS011;24973;47.178;15.316;2023-11-21T08:26:40;132.40;;;81.43;;
21798;SDS011;24973;47.178;15.316;2023-11-21T08:29:29;134.50;;;79.97;;
21798;SDS011;24973;47.178;15.316;2023-11-21T08:32:19;138.07;;;86.20;;
21798;SDS011;24973;47.178;15.316;2023-11-21T08:35:08;155.23;;;87.87;;
21798;SDS011;24973;47.178;15.316;2023-11-21T08:38:00;141.63;;;91.87;;
21798;SDS011;24973;47.178;15.316;2023-11-21T08:40:49;129.07;;;83.30;;
21798;SDS011;24973;47.178;15.316;2023-11-21T08:43:38;152.33;;;87.13;;
21798;SDS011;24973;47.178;15.316;2023-11-21T08:46:27;160.93;;;88.67;;
21798;SDS011;24973;47.178;15.316;2023-11-21T08:49:16;167.17;;;88.03;;
21798;SDS011;24973;47.178;15.316;2023-11-21T08:52:05;175.60;;;93.60;;
21798;SDS011;24973;47.178;15.316;2023-11-21T08:54:55;175.43;;;91.10;;
21798;SDS011;24973;47.178;15.316;2023-11-21T08:57:46;165.43;;;90.97;;
21798;SDS011;24973;47.178;15.316;2023-11-21T09:00:35;168.27;;;91.93;;
21798;SDS011;24973;47.178;15.316;2023-11-21T09:03:25;179.80;;;90.60;;
21798;SDS011;24973;47.178;15.316;2023-11-21T09:06:15;187.17;;;94.10;;
21798;SDS011;24973;47.178;15.316;2023-11-21T09:09:04;208.70;;;97.90;;
21798;SDS011;24973;47.178;15.316;2023-11-21T09:11:56;206.20;;;98.13;;
21798;SDS011;24973;47.178;15.316;2023-11-21T09:14:47;220.80;;;97.17;;
21798;SDS011;24973;47.178;15.316;2023-11-21T09:17:36;268.23;;;99.07;;
21798;SDS011;24973;47.178;15.316;2023-11-21T09:20:26;332.50;;;94.93;;
21798;SDS011;24973;47.178;15.316;2023-11-21T09:23:15;340.27;;;95.53;;
21798;SDS011;24973;47.178;15.316;2023-11-21T09:26:05;242.83;;;108.17;;
21798;SDS011;24973;47.178;15.316;2023-11-21T09:28:55;190.80;;;93.27;;
21798;SDS011;24973;47.178;15.316;2023-11-21T09:31:44;218.37;;;97.70;;
21798;SDS011;24973;47.178;15.316;2023-11-21T09:34:33;237.60;;;103.13;;
21798;SDS011;24973;47.178;15.316;2023-11-21T09:37:25;241.63;;;101.77;;
21798;SDS011;24973;47.178;15.316;2023-11-21T09:40:14;245.63;;;102.37;;
21798;SDS011;24973;47.178;15.316;2023-11-21T09:43:05;271.97;;;107.80;;
21798;SDS011;24973;47.178;15.316;2023-11-21T09:46:04;290.20;;;107.80;;
21798;SDS011;24973;47.178;15.316;2023-11-21T09:48:57;301.30;;;103.33;;
21798;SDS011;24973;47.178;15.316;2023-11-21T09:51:51;288.43;;;99.63;;
21798;SDS011;24973;47.178;15.316;2023-11-21T09:54:42;299.83;;;103.40;;
21798;SDS011;24973;47.178;15.316;2023-11-21T09:57:32;328.57;;;102.23;;
21798;SDS011;24973;47.178;15.316;2023-11-21T10:00:22;339.87;;;100.70;;
21798;SDS011;24973;47.178;15.316;2023-11-21T10:03:12;351.27;;;100.80;;
21798;SDS011;24973;47.178;15.316;2023-11-21T10:06:03;350.03;;;109.93;;
21798;SDS011;24973;47.178;15.316;2023-11-21T10:08:53;273.23;;;95.90;;
21798;SDS011;24973;47.178;15.316;2023-11-21T10:11:43;322.80;;;92.60;;
21798;SDS011;24973;47.178;15.316;2023-11-21T10:14:32;322.50;;;89.77;;
21798;SDS011;24973;47.178;15.316;2023-11-21T10:17:22;318.80;;;86.33;;
21798;SDS011;24973;47.178;15.316;2023-11-21T10:20:14;326.60;;;91.57;;
21798;SDS011;24973;47.178;15.316;2023-11-21T10:23:03;69.53;;;62.83;;
21798;SDS011;24973;47.178;15.316;2023-11-21T10:25:54;62.53;;;56.90;;
21798;SDS011;24973;47.178;15.316;2023-11-21T10:28:54;51.20;;;47.23;;
21798;SDS011;24973;47.178;15.316;2023-11-21T10:31:44;43.53;;;39.97;;
21798;SDS011;24973;47.178;15.316;2023-11-21T10:34:33;42.57;;;39.30;;
21798;SDS011;24973;47.178;15.316;2023-11-21T10:37:23;43.67;;;40.43;;
21798;SDS011;24973;47.178;15.316;2023-11-21T10:40:13;32.53;;;29.30;;
21798;SDS011;24973;47.178;15.316;2023-11-21T10:43:05;42.20;;;38.30;;
21798;SDS011;24973;47.178;15.316;2023-11-21T10:45:57;41.07;;;37.93;;
21798;SDS011;24973;47.178;15.316;2023-11-21T10:48:51;49.30;;;45.50;;
21798;SDS011;24973;47.178;15.316;2023-11-21T10:51:42;43.33;;;40.40;;
21798;SDS011;24973;47.178;15.316;2023-11-21T10:54:33;51.53;;;47.67;;
21798;SDS011;24973;47.178;15.316;2023-11-21T10:57:22;51.27;;;47.17;;
21798;SDS011;24973;47.178;15.316;2023-11-21T11:00:12;50.30;;;46.07;;
21798;SDS011;24973;47.178;15.316;2023-11-21T11:03:03;52.20;;;47.80;;
21798;SDS011;24973;47.178;15.316;2023-11-21T11:05:52;41.87;;;39.10;;
21798;SDS011;24973;47.178;15.316;2023-11-21T11:08:41;47.80;;;44.23;;
21798;SDS011;24973;47.178;15.316;2023-11-21T11:11:32;52.10;;;48.13;;
21798;SDS011;24973;47.178;15.316;2023-11-21T11:14:22;57.83;;;53.37;;
21798;SDS011;24973;47.178;15.316;2023-11-21T11:17:12;52.27;;;47.70;;
21798;SDS011;24973;47.178;15.316;2023-11-21T11:20:03;51.27;;;46.30;;
21798;SDS011;24973;47.178;15.316;2023-11-21T11:22:59;47.67;;;44.33;;
21798;SDS011;24973;47.178;15.316;2023-11-21T11:26:04;42.10;;;38.13;;
21798;SDS011;24973;47.178;15.316;2023-11-21T11:29:01;45.63;;;42.40;;
21798;SDS011;24973;47.178;15.316;2023-11-21T11:32:00;52.70;;;48.73;;
21798;SDS011;24973;47.178;15.316;2023-11-21T11:34:54;39.70;;;36.63;;
21798;SDS011;24973;47.178;15.316;2023-11-21T11:37:47;41.63;;;38.70;;
21798;SDS011;24973;47.178;15.316;2023-11-21T11:40:39;47.47;;;44.03;;
21798;SDS011;24973;47.178;15.316;2023-11-21T11:43:29;35.10;;;32.53;;
21798;SDS011;24973;47.178;15.316;2023-11-21T11:46:20;33.77;;;31.57;;
21798;SDS011;24973;47.178;15.316;2023-11-21T11:49:23;46.97;;;42.40;;
21798;SDS011;24973;47.178;15.316;2023-11-21T11:55:25;65.77;;;60.13;;
21798;SDS011;24973;47.178;15.316;2023-11-21T11:58:17;72.03;;;65.40;;
21798;SDS011;24973;47.178;15.316;2023-11-21T12:01:06;78.90;;;70.97;;
21798;SDS011;24973;47.178;15.316;2023-11-21T12:07:21;69.30;;;62.93;;
21798;SDS011;24973;47.178;15.316;2023-11-21T12:10:12;67.47;;;61.33;;
21798;SDS011;24973;47.178;15.316;2023-11-21T12:13:05;58.20;;;53.20;;
21798;SDS011;24973;47.178;15.316;2023-11-21T12:15:55;76.67;;;68.57;;
21798;SDS011;24973;47.178;15.316;2023-11-21T12:18:44;79.67;;;71.87;;
21798;SDS011;24973;47.178;15.316;2023-11-21T12:21:34;82.10;;;73.53;;
21798;SDS011;24973;47.178;15.316;2023-11-21T12:24:24;85.20;;;76.17;;
21798;SDS011;24973;47.178;15.316;2023-11-21T12:27:15;90.50;;;80.57;;
21798;SDS011;24973;47.178;15.316;2023-11-21T12:30:05;104.53;;;89.10;;
21798;SDS011;24973;47.178;15.316;2023-11-21T12:33:00;105.50;;;91.40;;
21798;SDS011;24973;47.178;15.316;2023-11-21T12:35:50;109.10;;;92.17;;
21798;SDS011;24973;47.178;15.316;2023-11-21T12:38:41;115.20;;;92.70;;
21798;SDS011;24973;47.178;15.316;2023-11-21T12:41:31;114.90;;;96.07;;
21798;SDS011;24973;47.178;15.316;2023-11-21T12:44:20;122.40;;;97.43;;
21798;SDS011;24973;47.178;15.316;2023-11-21T12:47:10;139.20;;;103.77;;
21798;SDS011;24973;47.178;15.316;2023-11-21T12:50:02;164.53;;;116.93;;
21798;SDS011;24973;47.178;15.316;2023-11-21T12:52:52;143.53;;;107.17;;
21798;SDS011;24973;47.178;15.316;2023-11-21T12:55:43;158.03;;;106.80;;
21798;SDS011;24973;47.178;15.316;2023-11-21T12:58:38;163.17;;;108.90;;
21798;SDS011;24973;47.178;15.316;2023-11-21T13:01:28;179.03;;;111.57;;
21798;SDS011;24973;47.178;15.316;2023-11-21T13:04:18;186.13;;;116.73;;
21798;SDS011;24973;47.178;15.316;2023-11-21T13:07:07;209.37;;;126.53;;
21798;SDS011;24973;47.178;15.316;2023-11-21T13:10:01;224.47;;;133.17;;
21798;SDS011;24973;47.178;15.316;2023-11-21T13:12:53;238.50;;;129.47;;
21798;SDS011;24973;47.178;15.316;2023-11-21T13:15:47;234.47;;;125.73;;
21798;SDS011;24973;47.178;15.316;2023-11-21T13:18:37;173.97;;;117.60;;
21798;SDS011;24973;47.178;15.316;2023-11-21T13:21:28;345.53;;;107.27;;
21798;SDS011;24973;47.178;15.316;2023-11-21T13:24:17;289.40;;;128.43;;
21798;SDS011;24973;47.178;15.316;2023-11-21T13:27:08;236.07;;;126.97;;
21798;SDS011;24973;47.178;15.316;2023-11-21T13:29:58;254.27;;;129.90;;
21798;SDS011;24973;47.178;15.316;2023-11-21T13:32:47;134.30;;;112.20;;
21798;SDS011;24973;47.178;15.316;2023-11-21T13:35:38;120.57;;;107.33;;
21798;SDS011;24973;47.178;15.316;2023-11-21T13:38:28;114.47;;;102.33;;
21798;SDS011;24973;47.178;15.316;2023-11-21T13:41:19;121.17;;;108.27;;
21798;SDS011;24973;47.178;15.316;2023-11-21T13:44:14;126.87;;;112.37;;
21798;SDS011;24973;47.178;15.316;2023-11-21T13:47:14;135.97;;;112.47;;
21798;SDS011;24973;47.178;15.316;2023-11-21T13:50:04;127.70;;;109.03;;
21798;SDS011;24973;47.178;15.316;2023-11-21T13:53:00;133.00;;;113.17;;
21798;SDS011;24973;47.178;15.316;2023-11-21T13:55:57;148.17;;;113.43;;
21798;SDS011;24973;47.178;15.316;2023-11-21T13:58:46;156.10;;;118.43;;
21798;SDS011;24973;47.178;15.316;2023-11-21T14:01:38;154.53;;;114.90;;
21798;SDS011;24973;47.178;15.316;2023-11-21T14:04:42;170.77;;;116.90;;
21798;SDS011;24973;47.178;15.316;2023-11-21T14:07:41;193.63;;;121.27;;
21798;SDS011;24973;47.178;15.316;2023-11-21T14:10:34;228.90;;;122.33;;
21798;SDS011;24973;47.178;15.316;2023-11-21T14:13:29;269.83;;;113.17;;
21798;SDS011;24973;47.178;15.316;2023-11-21T14:16:20;163.27;;;115.67;;
21798;SDS011;24973;47.178;15.316;2023-11-21T14:19:09;167.30;;;112.83;;
21798;SDS011;24973;47.178;15.316;2023-11-21T14:22:03;182.27;;;116.17;;
21798;SDS011;24973;47.178;15.316;2023-11-21T14:24:54;192.67;;;119.00;;
21798;SDS011;24973;47.178;15.316;2023-11-21T14:27:46;183.30;;;114.53;;
21798;SDS011;24973;47.178;15.316;2023-11-21T14:30:35;265.03;;;110.67;;
21798;SDS011;24973;47.178;15.316;2023-11-21T14:33:26;171.00;;;92.50;;
21798;SDS011;24973;47.178;15.316;2023-11-21T14:36:15;33.80;;;27.53;;
21798;SDS011;24973;47.178;15.316;2023-11-21T14:39:05;28.67;;;24.87;;
21798;SDS011;24973;47.178;15.316;2023-11-21T14:41:59;21.90;;;20.43;;
21798;SDS011;24973;47.178;15.316;2023-11-21T14:44:49;25.40;;;23.07;;
21798;SDS011;24973;47.178;15.316;2023-11-21T14:47:38;24.60;;;22.67;;
21798;SDS011;24973;47.178;15.316;2023-11-21T14:50:33;26.23;;;24.17;;
21798;SDS011;24973;47.178;15.316;2023-11-21T14:53:35;22.57;;;20.57;;
21798;SDS011;24973;47.178;15.316;2023-11-21T14:56:41;25.77;;;23.77;;
21798;SDS011;24973;47.178;15.316;2023-11-21T14:59:32;22.17;;;20.47;;
21798;SDS011;24973;47.178;15.316;2023-11-21T15:02:20;31.40;;;29.30;;
21798;SDS011;24973;47.178;15.316;2023-11-21T15:05:30;26.53;;;24.50;;
21798;SDS011;24973;47.178;15.316;2023-11-21T15:08:22;26.43;;;24.17;;
21798;SDS011;24973;47.178;15.316;2023-11-21T15:11:17;27.07;;;23.50;;
21798;SDS011;24973;47.178;15.316;2023-11-21T15:14:07;28.90;;;19.73;;
21798;SDS011;24973;47.178;15.316;2023-11-21T15:16:59;17.80;;;16.17;;
21798;SDS011;24973;47.178;15.316;2023-11-21T15:19:50;29.83;;;23.97;;
21798;SDS011;24973;47.178;15.316;2023-11-21T15:22:39;23.87;;;21.70;;
21798;SDS011;24973;47.178;15.316;2023-11-21T15:25:28;29.87;;;27.50;;
21798;SDS011;24973;47.178;15.316;2023-11-21T15:28:17;42.87;;;33.63;;
21798;SDS011;24973;47.178;15.316;2023-11-21T15:31:07;38.37;;;31.13;;
21798;SDS011;24973;47.178;15.316;2023-11-21T15:33:56;29.87;;;27.77;;
21798;SDS011;24973;47.178;15.316;2023-11-21T15:36:46;33.23;;;30.47;;
21798;SDS011;24973;47.178;15.316;2023-11-21T15:39:39;36.80;;;33.93;;
21798;SDS011;24973;47.178;15.316;2023-11-21T15:42:29;36.73;;;33.77;;
21798;SDS011;24973;47.178;15.316;2023-11-21T15:45:18;41.83;;;37.80;;
21798;SDS011;24973;47.178;15.316;2023-11-21T15:48:11;47.63;;;42.63;;
21798;SDS011;24973;47.178;15.316;2023-11-21T15:51:01;44.77;;;40.27;;
21798;SDS011;24973;47.178;15.316;2023-11-21T15:53:51;46.40;;;42.27;;
21798;SDS011;24973;47.178;15.316;2023-11-21T15:56:40;43.50;;;39.93;;
21798;SDS011;24973;47.178;15.316;2023-11-21T15:59:31;48.40;;;44.03;;
21798;SDS011;24973;47.178;15.316;2023-11-21T16:02:20;54.10;;;48.87;;
21798;SDS011;24973;47.178;15.316;2023-11-21T16:05:10;66.40;;;59.07;;
21798;SDS011;24973;47.178;15.316;2023-11-21T16:08:00;57.63;;;52.07;;
21798;SDS011;24973;47.178;15.316;2023-11-21T16:10:49;63.53;;;56.83;;
21798;SDS011;24973;47.178;15.316;2023-11-21T16:13:38;62.77;;;56.20;;
21798;SDS011;24973;47.178;15.316;2023-11-21T16:16:29;68.33;;;59.93;;
21798;SDS011;24973;47.178;15.316;2023-11-21T16:19:18;65.53;;;57.00;;
21798;SDS011;24973;47.178;15.316;2023-11-21T16:22:08;68.67;;;57.43;;